TimeEST,TemperatureF,Dew PointF,Humidity,Sea Level PressureIn,VisibilityMPH,Wind Direction,Wind SpeedMPH,Gust SpeedMPH,PrecipitationIn,Events,Conditions,WindDirDegrees,DateUTC
12:53 AM,69.1,64.9,87,30.11,10.0,Calm,Calm,-,N/A,,Clear,0,2012-11-28 05:53:00
1:53 AM,70.0,64.9,84,30.11,10.0,NW,3.5,-,N/A,,Clear,320,2012-11-28 06:53:00
2:53 AM,68.0,64.9,90,30.10,10.0,NW,5.8,-,N/A,,Clear,320,2012-11-28 07:53:00
3:53 AM,68.0,64.9,90,30.11,9.0,NW,3.5,-,N/A,,Clear,310,2012-11-28 08:53:00
4:53 AM,66.9,64.0,90,30.11,9.0,NNW,3.5,-,N/A,,Clear,330,2012-11-28 09:53:00
5:53 AM,66.9,64.0,90,30.12,9.0,NW,3.5,-,N/A,,Clear,320,2012-11-28 10:53:00
6:53 AM,66.9,64.0,90,30.13,9.0,NNW,4.6,-,N/A,,Partly Cloudy,340,2012-11-28 11:53:00
7:53 AM,68.0,64.0,87,30.15,10.0,North,8.1,-,N/A,,Partly Cloudy,350,2012-11-28 12:53:00
8:41 AM,69.8,64.4,83,30.17,10.0,NNW,5.8,-,N/A,,Mostly Cloudy,340,2012-11-28 13:41:00
8:53 AM,71.1,66.0,84,30.17,10.0,North,4.6,-,N/A,,Mostly Cloudy,360,2012-11-28 13:53:00
9:18 AM,71.6,64.4,78,30.18,10.0,North,9.2,-,N/A,,Partly Cloudy,360,2012-11-28 14:18:00
9:53 AM,73.9,64.0,71,30.19,10.0,North,6.9,-,N/A,,Partly Cloudy,350,2012-11-28 14:53:00
10:53 AM,77.0,63.0,62,30.18,10.0,North,6.9,-,N/A,,Partly Cloudy,360,2012-11-28 15:53:00
11:53 AM,79.0,63.0,58,30.16,10.0,NNE,6.9,-,N/A,,Partly Cloudy,30,2012-11-28 16:53:00
12:53 PM,80.1,61.0,52,30.14,10.0,NNW,9.2,-,N/A,,Scattered Clouds,330,2012-11-28 17:53:00
1:53 PM,81.0,60.1,49,30.12,10.0,NNW,8.1,-,N/A,,Scattered Clouds,340,2012-11-28 18:53:00
2:53 PM,80.1,57.9,47,30.11,10.0,North,11.5,-,N/A,,Scattered Clouds,360,2012-11-28 19:53:00
3:53 PM,78.1,61.0,56,30.11,10.0,NE,11.5,-,N/A,,Scattered Clouds,40,2012-11-28 20:53:00
4:53 PM,75.9,63.0,64,30.12,10.0,NNE,15.0,-,N/A,,Partly Cloudy,30,2012-11-28 21:53:00
5:53 PM,75.0,63.0,66,30.13,10.0,North,10.4,-,N/A,,Mostly Cloudy,10,2012-11-28 22:53:00
6:53 PM,73.0,63.0,71,30.14,10.0,North,12.7,-,N/A,,Scattered Clouds,350,2012-11-28 23:53:00
7:53 PM,71.1,63.0,75,30.17,10.0,North,11.5,-,N/A,,Scattered Clouds,350,2012-11-29 00:53:00
8:53 PM,70.0,63.0,78,30.18,10.0,North,8.1,-,N/A,,Mostly Cloudy,350,2012-11-29 01:53:00
9:29 PM,69.8,64.4,83,30.18,10.0,North,8.1,-,N/A,,Mostly Cloudy,10,2012-11-29 02:29:00
9:53 PM,70.0,64.0,81,30.18,10.0,North,8.1,-,N/A,,Overcast,10,2012-11-29 02:53:00
10:37 PM,68.0,64.4,88,30.18,6.0,NNW,6.9,-,0.01,Rain,Light Rain,340,2012-11-29 03:37:00
10:53 PM,68.0,64.9,90,30.17,10.0,NNW,8.1,-,0.02,Rain,Light Rain,330,2012-11-29 03:53:00
11:53 PM,66.0,63.0,90,30.16,9.0,NNW,9.2,-,0.00,,Overcast,330,2012-11-29 04:53:00